NY/NJ Local METAR Reports

No Warnings, Watches, or Advisories
KNYC - NYC/Central Park, NY, USA
Distance from station: NE 4mi, 7km
Updated: 10/21/2020 7:51pm
Mist, Mostly cloudy
Mist, Mostly cloudy
 Wind from calm
Wind: Calm
Temperature: 64°F , 18°C
Dew Point: 63°F , 17°C
Humidity: 94%
Barometer: 30.25 inHg , 1024.4 hPa
Summary: Mist
Clouds: Mostly cloudy
Visibility: 4 miles , 6 km
Cloud details: Mostly cloudy 400 ft
2020/10/21 23:51 KNYC 212351Z AUTO 00000KT 4SM BR BKN004 18/17 A3025 RMK AO2 SLP234 T01780172 10200 20178 50006
KEWR - Newark, NJ, USA
Distance from station: WSW 8mi, 13km
Updated: 10/21/2020 8:11pm
Mist, Overcast
Mist, Overcast
 Wind from calm
Wind: Calm
Temperature: 64°F , 18°C
Dew Point: 64°F , 18°C
Humidity: 100%
Barometer: 30.22 inHg , 1023.4 hPa
Summary: Mist
Clouds: Overcast
Visibility: 1/2 mile , 0.8 km
Cloud details: Overcast 200 ft
2020/10/22 00:11 KEWR 220011Z 00000KT 1/2SM R04R/6000VP6000FT BR OVC002 18/18 A3022 RMK AO2 SFC VIS 1 T01780178
 
KLGA - NYC/La Guardia, NY, USA
Distance from station: ENE 8mi, 13km
Updated: 10/21/2020 7:51pm
Mist, Overcast
Mist, Overcast
 Wind from SSE
Wind: SSE 7 mph , 11 km/h
Temperature: 66°F , 19°C
Dew Point: 63°F , 17°C
Humidity: 88%
Barometer: 30.22 inHg , 1023.4 hPa
Summary: Mist
Clouds: Overcast
Visibility: 2 miles , 3 km
Cloud details: Overcast 300 ft
2020/10/21 23:51 KLGA 212351Z 15006KT 2SM BR OVC003 19/17 A3022 RMK AO2 SLP232 T01890167 10217 20189 50005
KTEB - Teterboro, NJ, USA
Distance from station: N 9mi, 14km
Updated: 10/21/2020 7:58pm
Clear
Clear
 Wind from SE
Wind: SE 3 mph , 6 km/h
Temperature: 66°F , 19°C
Dew Point: 63°F , 17°C
Humidity: 88%
Barometer: 30.21 inHg , 1023 hPa
Clouds: Clear
Visibility: 10 miles , 16 km
2020/10/21 23:58 KTEB 212358Z 14003KT 10SM CLR 19/17 A3021 RMK AO2 T01890172
 
KJFK - NYC/Jfk Arpt, NY, USA
Distance from station: ESE 16mi, 25km
Updated: 10/21/2020 7:51pm
Fog, Overcast
Fog, Overcast
 Wind from SSE
Wind: SSE 8 mph , 13 km/h
Temperature: 64°F , 18°C
Dew Point: 64°F , 18°C
Humidity: 100%
Barometer: 30.24 inHg , 1024 hPa
Summary: Fog
Clouds: Overcast
Visibility: 1/4 mile , 0.4 km
Cloud details: Overcast 200 ft
2020/10/21 23:51 KJFK 212351Z 16007KT 1/4SM R04R/P6000FT FG OVC002 18/18 A3024 RMK AO2 SLP240 T01780178 10200 20178 51006 $
KCDW - Caldwell, NJ, USA
Distance from station: NW 16mi, 26km
Updated: 10/21/2020 7:53pm
Clear
Clear
 Wind from calm
Wind: Calm
Temperature: 64°F , 18°C
Dew Point: 63°F , 17°C
Humidity: 94%
Barometer: 30.23 inHg , 1023.7 hPa
Clouds: Clear
Visibility: 7 miles , 11 km
2020/10/21 23:53 KCDW 212353Z AUTO 00000KT 7SM CLR 18/17 A3023 RMK AO2 SLP239 T01830167 10217 20183 53004 $
 
KMMU - Morristown Muni, NJ, USA
Distance from station: W 20mi, 33km
Updated: 10/21/2020 6:45pm
NOT Current
Partly cloudy
Partly cloudy
 Wind from calm
Wind: Calm
Temperature: 66°F , 19°C
Dew Point: 66°F , 19°C
Humidity: 100%
Barometer: 30.22 inHg , 1023.4 hPa
Clouds: Partly cloudy
Visibility: 10 miles , 16 km
Cloud details: Partly cloudy 2200 ft
2020/10/21 22:45 KMMU 212245Z 00000KT 10SM SCT022 19/19 A3022
KHPN - White Plains, NY, USA
Distance from station: NE 28mi, 46km
Updated: 10/21/2020 7:56pm
Mist, Overcast
Mist, Overcast
 Wind from ESE
Wind: ESE 3 mph , 6 km/h
Temperature: 64°F , 18°C
Dew Point: 63°F , 17°C
Humidity: 94%
Barometer: 30.23 inHg , 1023.7 hPa
Summary: Mist
Clouds: Overcast
Visibility: 4 miles , 6 km
Cloud details: Overcast 400 ft
2020/10/21 23:56 KHPN 212356Z 12003KT 4SM BR VV004 18/17 A3023 RMK AO2 SLP235 T01780167 10194 20172 53007
 
KFRG - Farmingdale, NY, USA
Distance from station: E 32mi, 52km
Updated: 10/21/2020 7:53pm
Mist, Overcast
Mist, Overcast
 Wind from SSW
Wind: SSW 5 mph , 7 km/h
Temperature: 64°F , 18°C
Dew Point: 63°F , 17°C
Humidity: 94%
Barometer: 30.24 inHg , 1024 hPa
Summary: Mist
Clouds: Overcast
Visibility: 1 mile , 2 km
Cloud details: Overcast 200 ft
2020/10/21 23:53 KFRG 212353Z AUTO 20004KT 1SM BR VV002 18/17 A3024 RMK AO2 SLP241 T01780172 10206 20178 53006
KSMQ - Somerville, NJ, USA
Distance from station: WSW 34mi, 55km
Updated: 10/21/2020 7:53pm
Fog, Overcast
Fog, Overcast
 Wind from calm
Wind: Calm
Temperature: 61°F , 16°C
Dew Point: 61°F , 16°C
Humidity: 100%
Barometer: 30.21 inHg , 1023 hPa
Summary: Fog
Clouds: Overcast
Visibility: 1/4 mile , 0.4 km
Cloud details: Overcast 400 ft
2020/10/21 23:53 KSMQ 212353Z AUTO 00000KT 1/4SM FG VV004 16/16 A3021 RMK AO2 SLP229 T01610156 10200 20156 53003
 
KBLM - Belmar/Farmdale, NJ, USA
Distance from station: S 40mi, 64km
Updated: 10/21/2020 7:56pm
Clear
Clear
 Wind from S
Wind: S 6 mph , 9 km/h
Temperature: 66°F , 19°C
Dew Point: 64°F , 18°C
Humidity: 94%
Barometer: 30.25 inHg , 1024.4 hPa
Clouds: Clear
Visibility: 10 miles , 16 km
2020/10/21 23:56 KBLM 212356Z AUTO 18005KT 10SM CLR 19/18 A3025 RMK AO2 SLP242 T01890183 10228 20183 53008
K12N - Andover, NJ, USA
Distance from station: WNW 41mi, 67km
Updated: 10/21/2020 7:54pm

 Wind from calm
Wind: Calm
Temperature: 64°F , 18°C
Dew Point: 63°F , 17°C
Humidity: 94%
Barometer: 30.23 inHg , 1023.7 hPa
2020/10/21 23:54 K12N 212354Z AUTO 00000KT 18/17 A3023 RMK AO1 SLP234 T01780172 10194 20178 53004
 
KFWN - Sussex, NJ, USA
Distance from station: NW 45mi, 72km
Updated: 10/21/2020 7:53pm
Overcast
Overcast
 Wind from calm
Wind: Calm
Temperature: 64°F , 18°C
Dew Point: 63°F , 17°C
Humidity: 94%
Barometer: 30.23 inHg , 1023.7 hPa
Clouds: Overcast
Visibility: 10 miles , 16 km
Cloud details: Overcast 1200 ft
2020/10/21 23:53 KFWN 212353Z AUTO 00000KT 10SM OVC012 18/17 A3023 RMK AO2 SLP237 T01780167 10200 20178 53003
KISP - Islip, NY, USA
Distance from station: E 49mi, 79km
Updated: 10/21/2020 7:56pm
Fog, Overcast
Fog, Overcast
 Wind from S
Wind: S 5 mph , 7 km/h
Temperature: 63°F , 17°C
Dew Point: 63°F , 17°C
Humidity: 100%
Barometer: 30.24 inHg , 1024 hPa
Summary: Fog
Clouds: Overcast
Visibility: 1/8 mile , 0.2 km
Cloud details: Overcast 200 ft
2020/10/21 23:56 KISP 212356Z 18004KT 1/8SM R06/2200V3500FT FG VV002 17/17 A3024 RMK AO2 SLP240 60000 T01720172 10200 20172 53005